Time;durP1;ratioP1;P1;durP2;ratioP2;P2;SDS_P1;SDS_P2;PMS_P1;PMS_P2;Temp;Humidity;BMP_temperature;BMP_pressure;BME280_temperature;BME280_humidity;BME280_pressure;Samples;Min_cycle;Max_cycle;Signal;HPM_P1;HPM_P2
2021/12/25 00:00:14;;;;;;;32.30;18.73;;;;;;;-145.67;100.00;66521.78;4994206;28;20103;-75
2021/12/25 00:02:40;;;;;;;32.20;18.40;;;;;;;-145.67;100.00;66521.78;4993230;28;20487;-74
2021/12/25 00:05:06;;;;;;;30.63;17.98;;;;;;;-145.67;100.00;66521.78;4993493;28;20084;-74
2021/12/25 00:07:32;;;;;;;31.38;18.00;;;;;;;-145.67;100.00;66521.78;4992243;28;20246;-75
2021/12/25 00:10:00;;;;;;;29.33;16.75;;;;;;;-145.67;100.00;66521.78;4992796;28;20041;-75
2021/12/25 00:12:26;;;;;;;32.47;18.98;;;;;;;-145.67;100.00;66521.78;4994594;28;20029;-75
2021/12/25 00:14:55;;;;;;;30.98;18.55;;;;;;;-145.67;100.00;66521.78;4997060;28;20144;-74
2021/12/25 00:17:21;;;;;;;34.33;19.75;;;;;;;-145.67;100.00;66521.78;4994194;28;20049;-74
2021/12/25 00:19:46;;;;;;;32.50;19.00;;;;;;;-145.67;100.00;66521.78;4992497;28;20366;-75
2021/12/25 00:22:12;;;;;;;30.95;17.75;;;;;;;-145.67;100.00;66521.78;4994374;28;21725;-74
2021/12/25 00:24:42;;;;;;;30.30;17.65;;;;;;;-145.67;100.00;66521.78;4997388;28;20029;-74
2021/12/25 00:27:32;;;;;;;34.53;19.25;;;;;;;-145.67;100.00;66521.78;5008623;28;20386;-74
2021/12/25 00:32:48;;;;;;;34.58;20.85;;;;;;;-145.67;100.00;66521.78;4993050;28;20596;-73
2021/12/25 00:35:13;;;;;;;32.78;19.77;;;;;;;-145.67;100.00;66521.78;4994013;28;20108;-73
2021/12/25 00:37:39;;;;;;;33.08;19.20;;;;;;;-145.67;100.00;66521.78;4993683;28;20042;-73
2021/12/25 00:40:10;;;;;;;33.70;19.58;;;;;;;-145.67;100.00;66521.78;4993899;28;20156;-74
2021/12/25 00:42:35;;;;;;;32.67;20.10;;;;;;;-145.67;100.00;66521.78;4993653;28;20037;-73
2021/12/25 00:45:01;;;;;;;35.67;20.20;;;;;;;-145.67;100.00;66521.78;4993863;28;20030;-73
2021/12/25 00:47:26;;;;;;;38.28;20.90;;;;;;;-145.67;100.00;66521.78;4993389;28;20046;-73
2021/12/25 00:49:54;;;;;;;35.45;19.95;;;;;;;-145.67;100.00;66521.78;4993445;28;20095;-73
2021/12/25 00:52:20;;;;;;;39.58;20.73;;;;;;;-145.67;100.00;66521.78;4993404;28;20038;-73
2021/12/25 00:54:45;;;;;;;33.92;19.98;;;;;;;-145.67;100.00;66521.78;5007977;28;20334;-73
2021/12/25 00:57:11;;;;;;;35.97;20.20;;;;;;;-145.67;100.00;66521.78;4993763;28;20041;-73
2021/12/25 00:59:37;;;;;;;34.55;20.00;;;;;;;-145.67;100.00;66521.78;4997141;28;20517;-73
2021/12/25 01:02:02;;;;;;;37.78;20.65;;;;;;;-145.67;100.00;66521.78;4996781;28;20072;-73
2021/12/25 01:04:30;;;;;;;34.70;20.75;;;;;;;-145.67;100.00;66521.78;4997089;28;20087;-73
2021/12/25 01:06:56;;;;;;;36.22;20.77;;;;;;;-145.67;100.00;66521.78;4991225;28;20037;-75
2021/12/25 01:09:24;;;;;;;33.47;21.58;;;;;;;-145.67;100.00;66521.78;5012240;28;20034;-74
2021/12/25 01:11:51;;;;;;;37.67;21.33;;;;;;;-145.67;100.00;66521.78;5012185;28;22463;-74
2021/12/25 01:17:25;;;;;;;39.72;21.45;;;;;;;-145.67;100.00;66521.78;4997453;28;20489;-74
2021/12/25 01:41:16;;;;;;;38.53;21.25;;;;;;;-145.67;100.00;66521.78;4996378;28;20037;-71
2021/12/25 01:49:10;;;;;;;33.13;19.05;;;;;;;-145.67;100.00;66521.78;4995788;28;20050;-70
2021/12/25 01:51:40;;;;;;;35.67;20.17;;;;;;;-145.67;100.00;66521.78;4996916;28;20277;-71
2021/12/25 01:54:06;;;;;;;33.97;19.48;;;;;;;-145.67;100.00;66521.78;5009759;28;20068;-71
2021/12/25 01:56:32;;;;;;;32.97;19.92;;;;;;;-145.67;100.00;66521.78;4996281;28;20277;-71
2021/12/25 01:58:57;;;;;;;35.15;18.65;;;;;;;-145.67;100.00;66521.78;4995970;28;20235;-71
2021/12/25 02:01:23;;;;;;;32.60;17.38;;;;;;;-145.67;100.00;66521.78;4978055;28;20033;-71
2021/12/25 02:03:48;;;;;;;32.35;19.02;;;;;;;-145.67;100.00;66521.78;4995697;28;20561;-71
2021/12/25 02:06:14;;;;;;;31.15;17.35;;;;;;;-145.67;100.00;66521.78;4995884;28;22180;-71
2021/12/25 02:08:43;;;;;;;31.08;17.33;;;;;;;-145.67;100.00;66521.78;5002181;28;20049;-71
2021/12/25 02:11:13;;;;;;;32.50;18.02;;;;;;;-145.67;100.00;66521.78;4994963;28;20730;-71
2021/12/25 02:13:39;;;;;;;27.73;16.67;;;;;;;-145.67;100.00;66521.78;5001532;28;20120;-71
2021/12/25 02:16:11;;;;;;;29.00;18.25;;;;;;;-145.67;100.00;66521.78;4994855;28;20235;-70
2021/12/25 02:21:26;;;;;;;30.40;17.42;;;;;;;-145.67;100.00;66521.78;5003919;28;20073;-71
2021/12/25 02:23:52;;;;;;;30.83;17.83;;;;;;;-145.67;100.00;66521.78;4996711;28;20080;-71
2021/12/25 02:26:24;;;;;;;32.40;18.30;;;;;;;-145.67;100.00;66521.78;4995501;28;20061;-71
2021/12/25 02:28:50;;;;;;;31.75;18.15;;;;;;;-145.67;100.00;66521.78;4992975;28;20208;-71
2021/12/25 02:31:16;;;;;;;31.58;17.15;;;;;;;-145.67;100.00;66521.78;4995443;28;20542;-70
2021/12/25 02:33:42;;;;;;;30.20;16.40;;;;;;;-145.67;100.00;66521.78;5010030;28;20881;-70
2021/12/25 02:36:09;;;;;;;31.10;17.63;;;;;;;-145.67;100.00;66521.78;4994521;28;21921;-71
2021/12/25 02:38:35;;;;;;;30.33;17.20;;;;;;;-145.67;100.00;66521.78;4984629;28;20045;-70
2021/12/25 02:41:01;;;;;;;32.53;17.55;;;;;;;-145.67;100.00;66521.78;4994935;28;20357;-70
2021/12/25 02:43:27;;;;;;;31.17;15.93;;;;;;;-145.67;100.00;66521.78;4995031;28;20095;-71
2021/12/25 02:45:56;;;;;;;29.17;16.48;;;;;;;-145.67;100.00;66521.78;4983995;28;20034;-71
2021/12/25 02:48:22;;;;;;;29.25;16.58;;;;;;;-145.67;100.00;66521.78;5009193;28;20041;-71
2021/12/25 02:50:48;;;;;;;30.60;16.73;;;;;;;-145.67;100.00;66521.78;4995531;28;20318;-71
2021/12/25 02:53:14;;;;;;;31.08;16.35;;;;;;;-145.67;100.00;66521.78;4995910;28;20137;-71
2021/12/25 02:55:41;;;;;;;29.88;16.33;;;;;;;-145.67;100.00;66521.78;4998763;28;20087;-73
2021/12/25 02:58:08;;;;;;;33.35;16.63;;;;;;;-145.67;100.00;66521.78;4994897;28;20029;-73
2021/12/25 03:00:49;;;;;;;28.27;15.55;;;;;;;-145.67;100.00;66521.78;5004466;28;20109;-72
2021/12/25 03:03:14;;;;;;;30.33;16.00;;;;;;;-145.67;100.00;66521.78;4994320;28;20440;-72
2021/12/25 03:05:42;;;;;;;31.70;16.08;;;;;;;-145.67;100.00;66521.78;5009390;28;20095;-73
2021/12/25 03:08:10;;;;;;;27.67;15.73;;;;;;;-145.67;100.00;66521.78;4994481;28;20501;-72
2021/12/25 03:10:36;;;;;;;25.67;14.38;;;;;;;-145.67;100.00;66521.78;4995161;28;20502;-72
2021/12/25 03:15:46;;;;;;;25.05;14.93;;;;;;;-145.67;100.00;66521.78;4995458;28;20033;-72
2021/12/25 03:18:13;;;;;;;27.38;13.90;;;;;;;-145.67;100.00;66521.78;4994092;28;20030;-72
2021/12/25 03:20:40;;;;;;;26.50;14.38;;;;;;;-145.67;100.00;66521.78;4999520;28;20520;-72
2021/12/25 03:23:07;;;;;;;28.65;14.50;;;;;;;-145.67;100.00;66521.78;4992202;28;20040;-74
2021/12/25 03:25:33;;;;;;;31.60;15.35;;;;;;;-145.67;100.00;66521.78;4981104;28;20033;-75
2021/12/25 03:27:58;;;;;;;25.45;13.43;;;;;;;-145.67;100.00;66521.78;4994630;28;20049;-74
2021/12/25 03:30:25;;;;;;;24.83;12.60;;;;;;;-145.67;100.00;66521.78;4994383;28;20083;-74
2021/12/25 03:32:50;;;;;;;29.80;13.00;;;;;;;-145.67;100.00;66521.78;4994113;28;20128;-74
2021/12/25 03:35:16;;;;;;;28.92;13.10;;;;;;;-145.67;100.00;66521.78;4991583;28;20034;-75
2021/12/25 03:37:44;;;;;;;24.85;12.18;;;;;;;-145.67;100.00;66521.78;4995049;28;20033;-73
2021/12/25 03:40:10;;;;;;;20.10;11.65;;;;;;;-145.67;100.00;66521.78;4994209;28;20077;-73
2021/12/25 03:42:36;;;;;;;20.40;12.15;;;;;;;-145.67;100.00;66521.78;4994801;28;20037;-73
2021/12/25 03:45:05;;;;;;;21.60;11.07;;;;;;;-145.67;100.00;66521.78;4994179;28;20042;-72
2021/12/25 03:47:35;;;;;;;21.48;11.25;;;;;;;-145.67;100.00;66521.78;5009273;28;20026;-74
2021/12/25 03:58:21;;;;;;;22.83;11.52;;;;;;;-145.67;100.00;66521.78;4994457;28;20064;-74
2021/12/25 04:00:49;;;;;;;18.33;10.10;;;;;;;-145.67;100.00;66521.78;4998792;28;20034;-73
2021/12/25 04:03:26;;;;;;;19.63;9.80;;;;;;;-145.67;100.00;66521.78;4992867;28;20488;-74
2021/12/25 04:05:52;;;;;;;22.08;10.98;;;;;;;-145.67;100.00;66521.78;4994845;28;20046;-73
2021/12/25 04:08:22;;;;;;;21.13;10.85;;;;;;;-145.67;100.00;66521.78;4993797;28;20080;-73
2021/12/25 04:10:52;;;;;;;19.65;10.20;;;;;;;-145.67;100.00;66521.78;4994158;28;20645;-73
2021/12/25 04:13:19;;;;;;;16.92;10.50;;;;;;;-145.67;100.00;66521.78;4991975;28;20284;-73
2021/12/25 04:15:46;;;;;;;20.05;10.07;;;;;;;-145.67;100.00;66521.78;5003798;28;20055;-74
2021/12/25 04:18:11;;;;;;;18.60;9.68;;;;;;;-145.67;100.00;66521.78;4992267;28;20148;-73
2021/12/25 04:20:37;;;;;;;18.10;9.80;;;;;;;-145.67;100.00;66521.78;5008953;28;20030;-73
2021/12/25 04:23:10;;;;;;;16.65;9.00;;;;;;;-145.67;100.00;66521.78;4993428;28;20117;-73
2021/12/25 04:25:36;;;;;;;16.13;8.77;;;;;;;-145.67;100.00;66521.78;4993720;28;20042;-73
2021/12/25 04:28:27;;;;;;;16.63;8.50;;;;;;;-145.67;100.00;66521.78;4993528;28;20050;-74
2021/12/25 05:06:14;;;;;;;11.57;4.57;;;;;;;-145.67;100.00;66521.78;4997988;28;20076;-73
2021/12/25 05:08:43;;;;;;;11.30;4.70;;;;;;;-145.67;100.00;66521.78;5001180;28;20241;-73
2021/12/25 05:11:08;;;;;;;8.60;3.95;;;;;;;-145.67;100.00;66521.78;5001021;28;20049;-73
2021/12/25 05:13:35;;;;;;;10.02;4.10;;;;;;;-145.67;100.00;66521.78;5000127;28;20061;-73
2021/12/25 05:16:02;;;;;;;8.90;4.03;;;;;;;-145.67;100.00;66521.78;4996863;28;20030;-73
2021/12/25 05:18:28;;;;;;;9.50;4.65;;;;;;;-145.67;100.00;66521.78;4996105;28;20037;-73
2021/12/25 05:20:54;;;;;;;8.93;3.85;;;;;;;-145.67;100.00;66521.78;4996963;28;20100;-73
2021/12/25 05:23:20;;;;;;;6.00;3.92;;;;;;;-145.67;100.00;66521.78;4996902;28;20175;-73
2021/12/25 05:25:45;;;;;;;9.35;4.03;;;;;;;-145.67;100.00;66521.78;4996670;28;20120;-73
2021/12/25 05:28:13;;;;;;;9.75;4.50;;;;;;;-145.67;100.00;66521.78;4996309;28;20064;-72
2021/12/25 05:30:40;;;;;;;7.70;3.42;;;;;;;-145.67;100.00;66521.78;4997038;28;20069;-73
2021/12/25 05:33:08;;;;;;;5.47;3.60;;;;;;;-145.67;100.00;66521.78;4996214;28;20037;-73
2021/12/25 05:35:33;;;;;;;9.02;3.72;;;;;;;-145.67;100.00;66521.78;4997204;28;20095;-73
2021/12/25 05:38:00;;;;;;;6.57;3.20;;;;;;;-145.67;100.00;66521.78;4996104;28;20033;-73
2021/12/25 05:40:26;;;;;;;10.02;3.45;;;;;;;-145.67;100.00;66521.78;4985543;28;20029;-75
2021/12/25 05:42:52;;;;;;;6.20;3.60;;;;;;;-145.67;100.00;66521.78;4999384;28;20753;-73
2021/12/25 05:45:20;;;;;;;7.22;3.55;;;;;;;-145.67;100.00;66521.78;4994588;28;20034;-73
2021/12/25 05:47:45;;;;;;;5.47;3.00;;;;;;;-145.67;100.00;66521.78;4985629;28;20484;-74
2021/12/25 05:50:11;;;;;;;7.88;3.38;;;;;;;-145.67;100.00;66521.78;4995594;28;20037;-74
2021/12/25 05:52:39;;;;;;;5.63;2.92;;;;;;;-145.67;100.00;66521.78;4996745;28;20115;-75
2021/12/25 05:55:04;;;;;;;6.47;2.95;;;;;;;-145.67;100.00;66521.78;4994265;28;20026;-76
2021/12/25 05:57:35;;;;;;;7.07;3.35;;;;;;;-145.67;100.00;66521.78;4996037;28;20171;-75
2021/12/25 06:00:00;;;;;;;6.30;3.27;;;;;;;-145.67;100.00;66521.78;4995016;28;20354;-75
2021/12/25 06:02:26;;;;;;;4.90;2.90;;;;;;;-145.67;100.00;66521.78;4996244;28;22004;-73
2021/12/25 06:04:51;;;;;;;5.07;2.60;;;;;;;-145.67;100.00;66521.78;4995636;28;20026;-75
2021/12/25 06:07:17;;;;;;;4.67;2.73;;;;;;;-145.67;100.00;66521.78;5000953;28;20394;-74
2021/12/25 06:09:43;;;;;;;6.97;2.70;;;;;;;-145.67;100.00;66521.78;4970472;28;20084;-74
2021/12/25 06:12:11;;;;;;;5.47;2.67;;;;;;;-145.67;100.00;66521.78;4996428;28;20182;-74
2021/12/25 06:14:36;;;;;;;5.93;2.63;;;;;;;-145.67;100.00;66521.78;4994223;28;20030;-73
2021/12/25 06:17:04;;;;;;;7.40;3.10;;;;;;;-145.67;100.00;66521.78;4995468;28;20460;-73
2021/12/25 06:19:30;;;;;;;8.30;3.13;;;;;;;-145.67;100.00;66521.78;4998215;28;20539;-74
2021/12/25 06:21:55;;;;;;;7.77;3.00;;;;;;;-145.67;100.00;66521.78;4995016;28;20042;-74
2021/12/25 06:24:22;;;;;;;9.63;3.10;;;;;;;-145.67;100.00;66521.78;4996199;28;20528;-74
2021/12/25 06:26:47;;;;;;;6.17;2.67;;;;;;;-145.67;100.00;66521.78;4996589;28;20029;-74
2021/12/25 06:29:19;;;;;;;8.37;3.20;;;;;;;-145.67;100.00;66521.78;4996087;28;20049;-74
2021/12/25 06:31:45;;;;;;;4.85;3.17;;;;;;;-145.67;100.00;66521.78;5001010;28;20029;-74
2021/12/25 06:34:10;;;;;;;4.60;2.63;;;;;;;-145.67;100.00;66521.78;4995087;28;20057;-73
2021/12/25 06:36:36;;;;;;;6.97;2.60;;;;;;;-145.67;100.00;66521.78;4995754;28;20474;-70
2021/12/25 06:39:03;;;;;;;6.27;2.47;;;;;;;-145.67;100.00;66521.78;4994881;28;20049;-72
2021/12/25 06:41:29;;;;;;;5.60;2.23;;;;;;;-145.67;100.00;66521.78;4996402;28;20725;-72
2021/12/25 06:43:54;;;;;;;4.80;2.80;;;;;;;-145.67;100.00;66521.78;4994916;28;20044;-73
2021/12/25 06:46:20;;;;;;;7.07;2.40;;;;;;;-145.67;100.00;66521.78;4998798;28;20520;-73
2021/12/25 06:48:45;;;;;;;7.70;2.37;;;;;;;-145.67;100.00;66521.78;4996884;28;20029;-71
2021/12/25 06:51:11;;;;;;;5.43;2.43;;;;;;;-145.67;100.00;66521.78;4994844;28;20052;-71
2021/12/25 06:53:38;;;;;;;6.40;2.23;;;;;;;-145.67;100.00;66521.78;4986507;28;20477;-71
2021/12/25 06:56:04;;;;;;;7.77;2.70;;;;;;;-145.67;100.00;66521.78;4992332;28;20033;-71
2021/12/25 06:58:30;;;;;;;8.13;2.13;;;;;;;-145.67;100.00;66521.78;5000319;28;20022;-71
2021/12/25 07:00:55;;;;;;;4.77;2.00;;;;;;;-145.67;100.00;66521.78;4993759;28;20068;-71
2021/12/25 07:03:21;;;;;;;4.37;1.73;;;;;;;-145.67;100.00;66521.78;4993719;28;20038;-71
2021/12/25 07:05:51;;;;;;;4.40;1.90;;;;;;;-145.67;100.00;66521.78;4994104;28;20428;-71
2021/12/25 07:08:16;;;;;;;5.60;2.23;;;;;;;-145.67;100.00;66521.78;4994446;28;20037;-71
2021/12/25 07:10:46;;;;;;;8.90;2.17;;;;;;;-145.67;100.00;66521.78;4994533;28;20124;-72
2021/12/25 07:13:17;;;;;;;4.27;1.60;;;;;;;-145.67;100.00;66521.78;4994387;28;20325;-71
2021/12/25 07:15:42;;;;;;;5.50;1.87;;;;;;;-145.67;100.00;66521.78;4993270;28;20034;-72
2021/12/25 07:18:11;;;;;;;6.13;2.10;;;;;;;-145.67;100.00;66521.78;5008334;28;20033;-72
2021/12/25 07:20:39;;;;;;;4.97;1.80;;;;;;;-145.67;100.00;66521.78;4999904;28;20476;-71
2021/12/25 07:23:07;;;;;;;2.77;1.33;;;;;;;-145.67;100.00;66521.78;4976382;28;20045;-71
2021/12/25 07:25:32;;;;;;;3.90;2.00;;;;;;;-145.67;100.00;66521.78;4994779;28;20033;-71
2021/12/25 07:27:58;;;;;;;5.63;2.00;;;;;;;-145.67;100.00;66521.78;4993930;28;20069;-72
2021/12/25 07:30:23;;;;;;;3.43;1.60;;;;;;;-145.67;100.00;66521.78;4994364;28;20033;-71
2021/12/25 07:32:51;;;;;;;3.53;2.00;;;;;;;-145.67;100.00;66521.78;5002651;28;20091;-71
2021/12/25 07:35:20;;;;;;;5.13;1.93;;;;;;;-145.67;100.00;66521.78;4999424;28;20034;-71
2021/12/25 07:37:47;;;;;;;4.50;1.80;;;;;;;-145.67;100.00;66521.78;4999693;28;20042;-73
2021/12/25 07:40:13;;;;;;;3.57;1.73;;;;;;;-145.67;100.00;66521.78;4991846;28;20474;-72
2021/12/25 07:42:41;;;;;;;5.33;1.90;;;;;;;-145.67;100.00;66521.78;5003545;28;20076;-72
2021/12/25 07:45:07;;;;;;;3.77;1.70;;;;;;;-145.67;100.00;66521.78;4994000;28;20104;-72
2021/12/25 07:47:35;;;;;;;2.73;1.50;;;;;;;-145.67;100.00;66521.78;4993282;28;20342;-71
2021/12/25 07:50:02;;;;;;;4.93;1.87;;;;;;;-145.67;100.00;66521.78;5007709;28;20584;-71
2021/12/25 07:52:28;;;;;;;4.23;1.50;;;;;;;-145.67;100.00;66521.78;4991746;28;20038;-70
2021/12/25 07:54:54;;;;;;;3.47;1.50;;;;;;;-145.67;100.00;66521.78;4999295;28;20033;-73
2021/12/25 07:57:19;;;;;;;7.63;1.63;;;;;;;-145.67;100.00;66521.78;5003637;28;20461;-73
2021/12/25 07:59:45;;;;;;;2.77;1.53;;;;;;;-145.67;100.00;66521.78;4993440;28;20093;-72
2021/12/25 08:02:13;;;;;;;5.73;1.90;;;;;;;-145.67;100.00;66521.78;4993829;28;20539;-73
2021/12/25 08:04:41;;;;;;;3.17;1.53;;;;;;;-145.67;100.00;66521.78;4993084;28;20125;-73
2021/12/25 08:07:06;;;;;;;5.30;1.90;;;;;;;-145.67;100.00;66521.78;4991889;28;20037;-72
2021/12/25 08:09:38;;;;;;;5.03;1.70;;;;;;;-145.67;100.00;66521.78;4997148;28;20095;-72
2021/12/25 08:12:03;;;;;;;4.23;1.90;;;;;;;-145.67;100.00;66521.78;4996927;28;20092;-74
2021/12/25 08:14:32;;;;;;;4.03;2.10;;;;;;;-145.67;100.00;66521.78;4997881;28;20552;-73
2021/12/25 08:17:00;;;;;;;4.63;1.57;;;;;;;-145.67;100.00;66521.78;4996862;28;20045;-72
2021/12/25 08:19:26;;;;;;;3.73;1.70;;;;;;;-145.67;100.00;66521.78;4996986;28;20505;-74
2021/12/25 08:21:52;;;;;;;4.67;1.63;;;;;;;-145.67;100.00;66521.78;4997178;28;20242;-74
2021/12/25 08:24:19;;;;;;;2.90;1.97;;;;;;;-145.67;100.00;66521.78;4979789;28;20172;-74
2021/12/25 08:26:48;;;;;;;3.73;1.57;;;;;;;-145.67;100.00;66521.78;5005721;28;20029;-74
2021/12/25 08:29:14;;;;;;;3.60;1.50;;;;;;;-145.67;100.00;66521.78;4997467;28;20065;-72
2021/12/25 08:31:41;;;;;;;6.90;1.53;;;;;;;-145.67;100.00;66521.78;4995675;28;20053;-74
2021/12/25 08:34:08;;;;;;;6.30;1.87;;;;;;;-145.67;100.00;66521.78;4996520;28;20125;-74
2021/12/25 08:36:33;;;;;;;2.23;1.50;;;;;;;-145.67;100.00;66521.78;5012537;28;20073;-71
2021/12/25 08:38:59;;;;;;;6.67;1.63;;;;;;;-145.67;100.00;66521.78;4997208;28;20537;-74
2021/12/25 08:41:28;;;;;;;2.63;1.47;;;;;;;-145.67;100.00;66521.78;4997485;28;20470;-74
2021/12/25 08:43:58;;;;;;;3.03;1.43;;;;;;;-145.67;100.00;66521.78;4997375;28;20034;-75
2021/12/25 08:46:42;;;;;;;2.50;1.20;;;;;;;-145.67;100.00;66521.78;4997325;28;20117;-74
2021/12/25 08:49:10;;;;;;;2.33;1.13;;;;;;;-145.67;100.00;66521.78;4996078;28;20125;-74
2021/12/25 08:51:36;;;;;;;2.50;1.30;;;;;;;-145.67;100.00;66521.78;5002630;28;20756;-74
2021/12/25 08:54:04;;;;;;;4.03;1.53;;;;;;;-145.67;100.00;66521.78;4996817;28;20048;-75
2021/12/25 08:56:29;;;;;;;4.00;1.20;;;;;;;-145.67;100.00;66521.78;4997434;28;20111;-74
2021/12/25 08:58:55;;;;;;;3.03;1.17;;;;;;;-145.67;100.00;66521.78;5000714;28;20041;-74
2021/12/25 09:01:20;;;;;;;3.00;1.42;;;;;;;-145.67;100.00;66521.78;4996499;28;20029;-74
2021/12/25 09:03:48;;;;;;;2.20;1.30;;;;;;;-145.67;100.00;66521.78;4996087;28;20037;-74
2021/12/25 09:06:14;;;;;;;4.53;1.30;;;;;;;-145.67;100.00;66521.78;4997093;28;20659;-74
2021/12/25 09:08:44;;;;;;;4.67;1.57;;;;;;;-145.67;100.00;66521.78;4996501;28;20041;-74
2021/12/25 09:11:10;;;;;;;4.33;1.40;;;;;;;-145.67;100.00;66521.78;4997185;28;20056;-75
2021/12/25 09:13:35;;;;;;;2.47;1.20;;;;;;;-145.67;100.00;66521.78;5002292;28;20706;-74
2021/12/25 09:16:03;;;;;;;3.50;1.37;;;;;;;-145.67;100.00;66521.78;4995548;28;20037;-75
2021/12/25 09:18:29;;;;;;;3.47;1.20;;;;;;;-145.67;100.00;66521.78;4996027;28;20037;-72
2021/12/25 09:20:54;;;;;;;4.20;1.27;;;;;;;-145.67;100.00;66521.78;5000131;28;20091;-73
2021/12/25 09:23:20;;;;;;;2.50;0.97;;;;;;;-145.67;100.00;66521.78;5011298;28;20033;-73
2021/12/25 09:25:46;;;;;;;2.27;0.97;;;;;;;-145.67;100.00;66521.78;4995459;28;20037;-75
2021/12/25 09:28:12;;;;;;;3.73;1.10;;;;;;;-145.67;100.00;66521.78;4995936;28;20081;-75
2021/12/25 09:30:37;;;;;;;3.43;0.90;;;;;;;-145.67;100.00;66521.78;4996317;28;20042;-73
2021/12/25 09:33:03;;;;;;;6.30;1.30;;;;;;;-145.67;100.00;66521.78;4995851;28;20038;-75
2021/12/25 09:35:29;;;;;;;2.47;0.80;;;;;;;-145.67;100.00;66521.78;5010872;28;20140;-74
2021/12/25 09:37:57;;;;;;;4.67;1.00;;;;;;;-145.67;100.00;66521.78;4995801;28;20124;-74
2021/12/25 09:40:22;;;;;;;7.27;1.20;;;;;;;-145.67;100.00;66521.78;5002515;28;20155;-74
2021/12/25 09:42:48;;;;;;;2.57;0.90;;;;;;;-145.67;100.00;66521.78;4995673;28;20040;-74
2021/12/25 09:45:14;;;;;;;2.77;0.83;;;;;;;-145.67;100.00;66521.78;4996124;28;20060;-74
2021/12/25 09:47:43;;;;;;;1.63;0.67;;;;;;;-145.67;100.00;66521.78;4999881;28;20057;-74
2021/12/25 09:50:09;;;;;;;2.20;1.00;;;;;;;-145.67;100.00;66521.78;5002957;28;20217;-74
2021/12/25 09:52:34;;;;;;;3.63;1.00;;;;;;;-145.67;100.00;66521.78;5006728;28;20389;-74
2021/12/25 09:55:03;;;;;;;4.47;1.00;;;;;;;-145.67;100.00;66521.78;4984090;28;20053;-74
2021/12/25 09:57:28;;;;;;;3.03;0.90;;;;;;;-145.67;100.00;66521.78;5011366;28;20503;-74
2021/12/25 09:59:54;;;;;;;2.40;0.90;;;;;;;-145.67;100.00;66521.78;4995499;28;20053;-74
2021/12/25 10:02:20;;;;;;;3.07;0.80;;;;;;;-145.67;100.00;66521.78;4996089;28;20034;-74
2021/12/25 10:04:48;;;;;;;5.07;0.80;;;;;;;-145.67;100.00;66521.78;4995687;28;20030;-74
2021/12/25 10:07:23;;;;;;;3.13;0.97;;;;;;;-145.67;100.00;66521.78;5010720;28;20528;-74
2021/12/25 10:10:04;;;;;;;2.03;0.80;;;;;;;-145.67;100.00;66521.78;5011009;28;20026;-74
2021/12/25 10:12:51;;;;;;;3.70;0.90;;;;;;;-145.67;100.00;66521.78;4999708;28;20609;-74
2021/12/25 10:15:22;;;;;;;1.63;0.60;;;;;;;-145.67;100.00;66521.78;4983336;28;20445;-74
2021/12/25 10:17:54;;;;;;;3.07;1.23;;;;;;;-145.67;100.00;66521.78;5005445;28;20593;-74
2021/12/25 10:20:27;;;;;;;1.90;0.70;;;;;;;-145.67;100.00;66521.78;5010311;28;20481;-74
2021/12/25 10:23:07;;;;;;;3.17;1.10;;;;;;;-145.67;100.00;66521.78;4996069;28;20026;-75
2021/12/25 10:25:44;;;;;;;2.10;0.97;;;;;;;-145.67;100.00;66521.78;4996347;28;21048;-74
2021/12/25 10:28:11;;;;;;;3.23;1.13;;;;;;;-145.67;100.00;66521.78;5000862;28;20068;-75
2021/12/25 10:31:03;;;;;;;3.10;0.97;;;;;;;-145.67;100.00;66521.78;5009931;28;20045;-75
2021/12/25 10:33:34;;;;;;;2.80;1.20;;;;;;;-145.67;100.00;66521.78;4994087;28;20065;-75
2021/12/25 10:36:05;;;;;;;4.13;1.20;;;;;;;-145.67;100.00;66521.78;5010238;28;20042;-75
2021/12/25 10:38:30;;;;;;;3.40;1.10;;;;;;;-145.67;100.00;66521.78;5004687;28;20034;-75
2021/12/25 10:41:20;;;;;;;3.33;1.30;;;;;;;-145.67;100.00;66521.78;5009931;28;20044;-75
2021/12/25 10:43:48;;;;;;;2.33;1.07;;;;;;;-145.67;100.00;66521.78;5009859;28;20037;-74
2021/12/25 10:46:13;;;;;;;3.78;1.30;;;;;;;-145.67;100.00;66521.78;4995208;28;20516;-74
2021/12/25 10:48:41;;;;;;;3.33;1.17;;;;;;;-145.67;100.00;66521.78;5009123;28;20065;-74
2021/12/25 10:51:23;;;;;;;4.07;1.00;;;;;;;-145.67;100.00;66521.78;4982787;28;20044;-74
2021/12/25 10:53:52;;;;;;;6.03;1.70;;;;;;;-145.67;100.00;66521.78;4994840;28;20048;-74
2021/12/25 10:56:19;;;;;;;4.00;1.33;;;;;;;-145.67;100.00;66521.78;4990362;28;20076;-74
2021/12/25 10:58:44;;;;;;;4.93;1.43;;;;;;;-145.67;100.00;66521.78;5001294;28;20428;-74
2021/12/25 11:01:12;;;;;;;3.58;1.20;;;;;;;-145.67;100.00;66521.78;4994070;28;20033;-73
2021/12/25 11:03:42;;;;;;;4.10;1.40;;;;;;;-145.67;100.00;66521.78;4994877;28;22320;-73
2021/12/25 11:06:13;;;;;;;5.00;1.50;;;;;;;-145.67;100.00;66521.78;4995169;28;20041;-73
2021/12/25 11:08:39;;;;;;;3.38;1.38;;;;;;;-145.67;100.00;66521.78;4994945;28;20142;-73
2021/12/25 11:11:13;;;;;;;6.38;1.48;;;;;;;-145.67;100.00;66521.78;4994754;28;20038;-73
2021/12/25 11:13:38;;;;;;;5.60;1.90;;;;;;;-145.67;100.00;66521.78;5009235;28;20034;-73
2021/12/25 11:16:21;;;;;;;7.82;2.22;;;;;;;-145.67;100.00;66521.78;5010394;28;20037;-74
2021/12/25 11:19:03;;;;;;;5.30;2.13;;;;;;;-145.67;100.00;66521.78;4994192;28;20030;-74
2021/12/25 11:21:30;;;;;;;6.07;2.10;;;;;;;-145.67;100.00;66521.78;5009522;28;20038;-73
2021/12/25 11:24:23;;;;;;;6.33;2.23;;;;;;;-145.67;100.00;66521.78;5009327;28;20033;-73
2021/12/25 11:26:49;;;;;;;;;;;;;;;-145.67;100.00;66521.78;4997505;28;20033;-74
2021/12/25 11:29:16;;;;;;;6.83;2.70;;;;;;;-145.67;100.00;66521.78;4997850;28;20780;-74
2021/12/25 11:31:43;;;;;;;8.07;2.50;;;;;;;-145.67;100.00;66521.78;4998287;28;20033;-74
2021/12/25 11:34:12;;;;;;;10.93;3.20;;;;;;;-145.67;100.00;66521.78;5008467;28;20483;-70
2021/12/25 11:36:45;;;;;;;9.20;3.08;;;;;;;-145.67;100.00;66521.78;4989218;28;20037;-73
2021/12/25 11:39:11;;;;;;;10.23;3.10;;;;;;;-145.67;100.00;66521.78;5003827;28;20041;-73
2021/12/25 11:41:37;;;;;;;13.30;3.60;;;;;;;-145.67;100.00;66521.78;5008428;28;20113;-73
2021/12/25 11:44:07;;;;;;;10.07;3.13;;;;;;;-145.67;100.00;66521.78;4992930;28;20030;-72
2021/12/25 11:46:40;;;;;;;10.75;3.42;;;;;;;-145.67;100.00;66521.78;5003070;28;20509;-73
2021/12/25 11:49:11;;;;;;;10.87;3.73;;;;;;;-145.67;100.00;66521.78;5003123;28;20800;-73
2021/12/25 11:51:39;;;;;;;13.30;3.43;;;;;;;-145.67;100.00;66521.78;4994143;28;20041;-73
2021/12/25 11:54:57;;;;;;;11.90;4.03;;;;;;;-145.67;100.00;66521.78;4993246;28;20549;-73
2021/12/25 11:59:49;;;;;;;12.40;3.90;;;;;;;-145.67;100.00;66521.78;4998163;28;20374;-74
2021/12/25 12:02:41;;;;;;;11.43;3.40;;;;;;;-145.67;100.00;66521.78;5008709;28;20711;-73
2021/12/25 12:05:22;;;;;;;9.50;3.00;;;;;;;-145.67;100.00;66521.78;4999203;28;20033;-73
2021/12/25 12:08:11;;;;;;;13.00;2.95;;;;;;;-145.67;100.00;66521.78;4991477;28;20045;-74
2021/12/25 12:10:45;;;;;;;6.57;2.53;;;;;;;-145.67;100.00;66521.78;4993988;28;20105;-73
2021/12/25 12:13:18;;;;;;;8.57;2.88;;;;;;;-145.67;100.00;66521.78;4993773;28;20044;-73
2021/12/25 12:15:48;;;;;;;9.83;3.00;;;;;;;-145.67;100.00;66521.78;4997629;28;20064;-73
2021/12/25 12:18:26;;;;;;;8.05;2.90;;;;;;;-145.67;100.00;66521.78;4993519;28;20065;-73
2021/12/25 12:20:57;;;;;;;6.13;2.63;;;;;;;-145.67;100.00;66521.78;4993724;28;20036;-73
2021/12/25 12:23:37;;;;;;;5.80;2.10;;;;;;;-145.67;100.00;66521.78;4976250;28;20048;-74
2021/12/25 12:26:09;;;;;;;6.27;2.17;;;;;;;-145.67;100.00;66521.78;4993757;28;20486;-74
2021/12/25 12:28:52;;;;;;;7.82;2.03;;;;;;;-145.67;100.00;66521.78;4993361;28;20049;-72
2021/12/25 12:31:46;;;;;;;5.47;1.85;;;;;;;-145.67;100.00;66521.78;4993326;28;20084;-73
2021/12/25 12:34:29;;;;;;;5.13;1.50;;;;;;;-145.67;100.00;66521.78;5008093;28;20165;-74